Parkrose, Oregon
Current Conditions -  °F | °C
As of 4:53 AM on Monday 20 Oct 2014 (Local Time) from KTTD Reporting Station
Light Rain Light Rain  
Wind Chill: 61°   Ceiling: 3300
Heat Index: 61°   Visibility: 7mi
Dew Point: 57°   Wind: 0mph
Humidity: 87%   Direction: NA
Pressure: 29.74"   Gusts: NA
Location:  45.5423°N, 122.5°W
Report Text: KTTD 201153Z AUTO 00000KT 7SM -RA FEW018 BKN033 OVC049 16/14 A2974 RMK AO2 RAB30 SLP069 P0001 60003 70003 T01610139 10172 20156 53004
Loading
Personal Weather Stations






























Interactive Weather Map New forecast layout! Learn more

10-Day Weather Forecast

Advertisements
Track Severe Weather on mobile